Time;durP1;ratioP1;P1;durP2;ratioP2;P2;SDS_P1;SDS_P2;PMS_P1;PMS_P2;Temp;Humidity;BMP_temperature;BMP_pressure;BME280_temperature;BME280_humidity;BME280_pressure;Samples;Min_cycle;Max_cycle;Signal;HPM_P1;HPM_P2
2022/12/22 03:27:48;;;;;;;15.57;12.70;;;6.70;99.90;;;;;;5259581;28;20550;-48
2022/12/22 03:30:19;;;;;;;14.67;12.27;;;6.70;99.90;;;;;;5269885;28;20510;-49
2022/12/22 03:32:50;;;;;;;15.60;12.73;;;6.70;99.90;;;;;;5263485;28;20594;-48
2022/12/22 03:35:20;;;;;;;17.60;12.60;;;6.70;99.90;;;;;;5270085;28;20202;-48
2022/12/22 03:37:51;;;;;;;18.10;11.90;;;6.80;99.90;;;;;;5280634;28;20666;-50
2022/12/22 03:40:22;;;;;;;16.43;13.07;;;6.80;99.90;;;;;;5251570;28;20178;-47
2022/12/22 03:48:31;;;;;;;14.97;11.70;;;6.80;99.90;;;;;;5258421;28;20462;-50
2022/12/22 03:51:01;;;;;;;15.80;11.23;;;6.70;99.90;;;;;;5261556;28;20436;-50
2022/12/22 03:53:32;;;;;;;15.77;12.30;;;6.70;99.90;;;;;;5265016;28;20183;-51
2022/12/22 03:56:03;;;;;;;18.90;12.43;;;6.90;99.90;;;;;;5270134;28;20216;-51
2022/12/22 03:58:34;;;;;;;13.10;11.13;;;7.00;99.90;;;;;;5261102;28;20214;-51
2022/12/22 04:01:06;;;;;;;13.07;11.27;;;7.10;99.90;;;;;;5259551;28;20436;-49
2022/12/22 04:03:37;;;;;;;16.90;11.80;;;6.90;99.90;;;;;;5260001;28;20304;-50
2022/12/22 04:06:08;;;;;;;13.23;11.00;;;7.00;99.90;;;;;;5262140;28;21022;-48
2022/12/22 04:08:38;;;;;;;17.83;12.03;;;7.10;99.90;;;;;;5267160;28;20205;-49
2022/12/22 04:14:02;;;;;;;27.07;12.67;;;6.90;99.90;;;;;;5256305;28;20256;-49
2022/12/22 04:16:33;;;;;;;15.60;11.80;;;6.90;99.90;;;;;;5255895;28;20420;-48
2022/12/22 04:19:05;;;;;;;17.93;13.43;;;6.70;99.90;;;;;;5252029;28;20524;-50
2022/12/22 04:21:36;;;;;;;21.57;14.30;;;6.70;99.90;;;;;;5266575;28;20463;-50
2022/12/22 04:24:07;;;;;;;17.67;13.60;;;6.60;99.90;;;;;;5259645;28;20432;-52
2022/12/22 04:26:38;;;;;;;16.57;13.73;;;6.80;99.90;;;;;;5264413;28;21042;-50
2022/12/22 04:29:09;;;;;;;15.53;13.10;;;6.70;99.90;;;;;;5267677;28;20797;-49
2022/12/22 04:31:39;;;;;;;23.63;16.17;;;6.80;99.90;;;;;;5250323;28;20439;-50
2022/12/22 04:34:10;;;;;;;17.80;13.30;;;6.80;99.90;;;;;;5266834;28;20177;-48
2022/12/22 04:36:41;;;;;;;19.90;15.97;;;6.80;99.90;;;;;;5266150;28;20626;-49
2022/12/22 04:39:11;;;;;;;18.10;15.47;;;6.70;99.90;;;;;;5263159;28;20652;-49
2022/12/22 04:41:43;;;;;;;21.60;14.80;;;6.80;99.90;;;;;;5261012;28;20190;-49
2022/12/22 04:44:14;;;;;;;25.63;16.77;;;6.70;99.90;;;;;;5277312;28;20215;-50
2022/12/22 04:46:45;;;;;;;24.37;17.07;;;6.70;99.90;;;;;;5267235;28;20499;-49
2022/12/22 04:49:16;;;;;;;25.67;17.87;;;6.60;99.90;;;;;;5266413;28;20203;-50
2022/12/22 04:51:46;;;;;;;28.60;17.63;;;6.60;99.90;;;;;;5277868;27;20422;-49
2022/12/22 04:54:17;;;;;;;30.30;19.47;;;6.60;99.90;;;;;;5270218;28;20182;-49
2022/12/22 04:56:48;;;;;;;34.90;19.57;;;6.50;99.90;;;;;;5261384;28;20567;-48
2022/12/22 04:59:19;;;;;;;23.63;18.10;;;6.50;99.90;;;;;;5257910;28;20205;-51
2022/12/22 05:01:50;;;;;;;29.20;19.13;;;6.50;99.90;;;;;;5263259;28;20811;-50
2022/12/22 05:04:20;;;;;;;28.80;19.73;;;6.50;99.90;;;;;;5266371;28;20624;-49
2022/12/22 05:06:51;;;;;;;27.53;19.60;;;6.50;99.90;;;;;;5264809;28;20270;-50
2022/12/22 05:09:22;;;;;;;29.63;19.23;;;6.70;99.90;;;;;;5256864;28;20233;-49
2022/12/22 05:11:52;;;;;;;34.10;19.83;;;6.60;99.90;;;;;;5264040;28;20211;-48
2022/12/22 05:14:23;;;;;;;29.00;21.60;;;6.60;99.90;;;;;;5262695;28;20540;-50
2022/12/22 05:16:54;;;;;;;27.87;20.03;;;6.60;99.90;;;;;;5267585;28;20181;-50
2022/12/22 05:19:24;;;;;;;29.43;19.70;;;6.50;99.90;;;;;;5260931;28;20587;-51
2022/12/22 05:21:55;;;;;;;39.57;23.77;;;6.50;99.90;;;;;;5258023;28;20212;-51
2022/12/22 05:24:25;;;;;;;33.77;21.23;;;6.50;99.90;;;;;;5246158;28;20214;-51
2022/12/22 05:26:56;;;;;;;33.23;22.93;;;6.50;99.90;;;;;;5275020;28;20240;-48
2022/12/22 05:29:27;;;;;;;40.40;22.67;;;6.50;99.90;;;;;;5259839;28;20204;-48
2022/12/22 05:31:57;;;;;;;36.03;23.17;;;6.50;99.90;;;;;;5264851;28;20516;-49
2022/12/22 05:34:28;;;;;;;35.53;20.77;;;6.60;99.90;;;;;;5267744;28;20257;-49
2022/12/22 05:36:59;;;;;;;42.03;23.83;;;6.60;99.90;;;;;;5268129;28;20219;-49
2022/12/22 05:39:29;;;;;;;36.73;23.47;;;6.50;99.90;;;;;;5267182;28;20247;-50
2022/12/22 05:42:00;;;;;;;34.27;21.80;;;6.50;99.90;;;;;;5260760;28;20715;-50
2022/12/22 05:44:30;;;;;;;35.67;23.17;;;6.50;99.90;;;;;;5274945;28;20301;-51
2022/12/22 05:47:01;;;;;;;38.93;23.10;;;6.60;99.90;;;;;;5264388;28;20221;-49
2022/12/22 05:49:32;;;;;;;39.63;22.23;;;6.60;99.90;;;;;;5267224;28;20651;-49
2022/12/22 05:52:02;;;;;;;37.97;24.50;;;6.60;99.90;;;;;;5277035;28;20586;-49
2022/12/22 05:54:33;;;;;;;39.47;24.50;;;6.50;99.90;;;;;;5265351;28;20174;-49
2022/12/22 05:57:04;;;;;;;42.10;26.70;;;6.60;99.90;;;;;;5254874;28;20202;-49
2022/12/22 05:59:34;;;;;;;36.27;22.40;;;6.60;99.90;;;;;;5258892;28;20818;-50
2022/12/22 06:02:05;;;;;;;36.73;24.10;;;6.70;99.90;;;;;;5252313;28;20245;-52
2022/12/22 06:04:36;;;;;;;36.97;23.87;;;6.80;99.90;;;;;;5265813;28;20243;-50
2022/12/22 06:07:06;;;;;;;42.40;24.20;;;6.80;99.90;;;;;;5263603;28;20266;-51
2022/12/22 06:09:37;;;;;;;31.07;21.43;;;6.70;99.90;;;;;;5266609;28;20182;-49
2022/12/22 06:12:08;;;;;;;40.17;22.63;;;6.80;99.90;;;;;;5262377;28;20547;-50
2022/12/22 06:14:39;;;;;;;34.00;22.03;;;6.90;99.90;;;;;;5266277;28;20173;-49
2022/12/22 06:17:10;;;;;;;36.17;22.47;;;6.90;99.90;;;;;;5252714;28;20436;-49
2022/12/22 06:19:40;;;;;;;37.23;23.73;;;6.80;99.90;;;;;;5264051;28;20186;-50
2022/12/22 06:22:11;;;;;;;37.20;23.70;;;7.00;99.90;;;;;;5270451;28;20222;-49
2022/12/22 06:24:42;;;;;;;44.00;25.00;;;6.90;99.90;;;;;;5261542;28;20569;-50
2022/12/22 06:27:13;;;;;;;37.67;23.77;;;6.80;99.90;;;;;;5271972;28;20232;-50
2022/12/22 06:29:44;;;;;;;34.60;23.53;;;6.80;99.90;;;;;;5270520;28;20209;-49
2022/12/22 06:32:15;;;;;;;42.90;24.50;;;6.80;99.90;;;;;;5266061;28;20462;-48
2022/12/22 06:34:45;;;;;;;43.33;27.00;;;6.90;99.90;;;;;;5269274;28;20239;-51
2022/12/22 06:37:16;;;;;;;44.17;26.93;;;6.90;99.90;;;;;;5265874;28;20206;-50
2022/12/22 06:39:46;;;;;;;52.53;26.60;;;6.80;99.90;;;;;;5271455;28;20185;-50
2022/12/22 06:45:07;;;;;;;45.13;26.50;;;6.80;99.90;;;;;;5271042;28;20711;-49
2022/12/22 06:47:37;;;;;;;42.00;26.20;;;6.70;99.90;;;;;;5269199;28;20902;-50
2022/12/22 06:50:09;;;;;;;43.20;26.10;;;6.80;99.90;;;;;;5267738;28;20431;-50
2022/12/22 06:52:39;;;;;;;41.90;25.70;;;6.90;99.90;;;;;;5264153;28;20309;-48
2022/12/22 06:55:10;;;;;;;44.80;27.37;;;6.90;99.90;;;;;;5268709;28;20856;-51
2022/12/22 06:57:41;;;;;;;39.03;24.50;;;6.80;99.90;;;;;;5268741;28;20210;-48
2022/12/22 07:00:12;;;;;;;41.53;24.67;;;6.90;99.90;;;;;;5266356;28;20204;-51
2022/12/22 07:02:42;;;;;;;40.00;23.77;;;7.00;99.90;;;;;;5260119;28;20613;-51
2022/12/22 07:05:14;;;;;;;47.60;25.90;;;7.00;99.90;;;;;;5246259;28;20437;-52
2022/12/22 07:07:45;;;;;;;37.47;23.63;;;6.90;99.90;;;;;;5267178;28;20252;-52
2022/12/22 07:10:16;;;;;;;32.30;22.37;;;6.90;99.90;;;;;;5268355;28;20439;-51
2022/12/22 07:12:46;;;;;;;35.23;23.80;;;7.20;99.90;;;;;;5265348;28;20499;-52
2022/12/22 07:15:17;;;;;;;39.70;23.70;;;7.20;99.90;;;;;;5269045;28;20177;-52
2022/12/22 07:17:48;;;;;;;39.37;25.30;;;7.00;99.90;;;;;;5266817;28;20263;-51
2022/12/22 07:20:18;;;;;;;41.30;24.77;;;7.10;99.90;;;;;;5268540;28;20193;-51
2022/12/22 07:22:49;;;;;;;41.63;22.73;;;7.00;99.90;;;;;;5266454;28;20231;-51
2022/12/22 07:25:20;;;;;;;35.30;22.70;;;7.10;99.90;;;;;;5261272;28;20182;-52
2022/12/22 07:27:50;;;;;;;38.10;23.20;;;7.10;99.90;;;;;;5267748;28;20217;-52
2022/12/22 07:30:21;;;;;;;33.47;21.23;;;7.00;99.90;;;;;;5268177;28;20173;-52
2022/12/22 07:32:51;;;;;;;39.07;23.50;;;7.00;99.90;;;;;;5268426;28;20185;-53
2022/12/22 07:35:22;;;;;;;43.43;21.33;;;7.10;99.90;;;;;;5265779;28;20212;-52
2022/12/22 07:37:53;;;;;;;32.03;21.73;;;7.30;99.90;;;;;;5260472;28;20208;-50
2022/12/22 07:40:23;;;;;;;27.50;20.23;;;7.20;99.90;;;;;;5257513;28;20232;-51
2022/12/22 07:42:59;;;;;;;36.43;21.27;;;7.30;99.90;;;;;;5255366;28;20239;-52
2022/12/22 07:45:29;;;;;;;36.60;20.80;;;7.40;99.90;;;;;;5262497;28;20181;-52
2022/12/22 07:48:01;;;;;;;28.13;18.50;;;7.40;99.90;;;;;;5247756;28;20464;-52
2022/12/22 07:50:32;;;;;;;31.40;19.70;;;7.30;99.90;;;;;;5259459;28;20185;-52
2022/12/22 07:53:03;;;;;;;34.43;19.90;;;7.30;99.90;;;;;;5254890;28;20432;-52
2022/12/22 07:55:35;;;;;;;36.23;19.23;;;7.30;99.90;;;;;;5256329;28;21086;-52
2022/12/22 07:58:06;;;;;;;30.30;20.03;;;7.40;99.90;;;;;;5260742;28;20501;-53
2022/12/22 08:00:37;;;;;;;29.87;20.57;;;7.30;99.90;;;;;;5254594;28;20437;-51
2022/12/22 08:03:08;;;;;;;32.80;20.07;;;7.40;99.90;;;;;;5257937;28;20633;-51
2022/12/22 08:05:39;;;;;;;29.77;21.00;;;7.30;99.90;;;;;;5255140;28;20539;-52
2022/12/22 08:08:09;;;;;;;28.77;19.30;;;7.30;99.90;;;;;;5265842;28;20475;-52
2022/12/22 08:10:40;;;;;;;38.30;20.57;;;7.40;99.90;;;;;;5265035;28;20188;-51
2022/12/22 08:13:10;;;;;;;33.23;18.67;;;7.40;99.90;;;;;;5247766;28;20202;-57
2022/12/22 08:15:41;;;;;;;32.07;20.10;;;7.40;99.90;;;;;;5258032;28;21369;-49
2022/12/22 08:18:12;;;;;;;28.30;19.00;;;7.30;99.90;;;;;;5263737;28;20205;-51
2022/12/22 08:20:51;;;;;;;29.40;19.97;;;7.50;99.90;;;;;;5260735;28;20180;-54
2022/12/22 08:23:21;;;;;;;29.40;20.70;;;7.30;99.90;;;;;;5261681;28;20182;-53
2022/12/22 08:26:04;;;;;;;34.03;18.20;;;7.30;99.90;;;;;;5261554;28;20773;-50
2022/12/22 08:28:42;;;;;;;34.00;21.57;;;7.40;99.90;;;;;;5278266;27;20222;-49
2022/12/22 08:31:13;;;;;;;41.60;20.20;;;7.40;99.90;;;;;;5262263;28;20436;-50
2022/12/22 08:33:44;;;;;;;34.73;21.47;;;7.30;99.90;;;;;;5259409;28;20445;-52
2022/12/22 08:36:15;;;;;;;31.50;19.67;;;7.40;99.90;;;;;;5260772;28;20182;-51
2022/12/22 08:38:46;;;;;;;31.30;21.20;;;7.40;99.90;;;;;;5256519;28;20789;-50
2022/12/22 08:41:48;;;;;;;38.57;21.00;;;7.50;99.90;;;;;;5257550;28;20445;-48
2022/12/22 08:44:10;;;;;;;34.43;20.50;;;7.50;99.90;;;;;;5261832;28;20202;-51
2022/12/22 08:46:41;;;;;;;37.47;21.07;;;7.60;99.90;;;;;;5253789;28;20550;-49
2022/12/22 08:49:12;;;;;;;41.73;19.97;;;7.60;99.90;;;;;;5262024;28;20592;-50
2022/12/22 08:51:43;;;;;;;35.40;19.20;;;7.60;99.90;;;;;;5261852;28;20180;-50
2022/12/22 08:54:15;;;;;;;48.43;26.50;;;7.70;99.90;;;;;;5269470;28;20524;-50
2022/12/22 08:56:46;;;;;;;46.40;23.47;;;7.90;99.90;;;;;;5253412;28;20962;-49
2022/12/22 08:59:17;;;;;;;37.63;21.57;;;7.90;99.90;;;;;;5262350;28;20605;-48
2022/12/22 09:01:49;;;;;;;56.23;25.10;;;8.00;99.90;;;;;;5263167;28;20490;-49
2022/12/22 09:04:21;;;;;;;35.50;18.77;;;8.00;99.90;;;;;;5257540;28;22388;-51
2022/12/22 09:06:52;;;;;;;36.80;21.53;;;8.00;99.90;;;;;;5267220;28;21047;-52
2022/12/22 09:09:23;;;;;;;41.93;20.13;;;7.90;99.90;;;;;;5265293;28;20554;-52
2022/12/22 09:11:54;;;;;;;47.70;24.93;;;8.00;99.90;;;;;;5241236;28;20281;-51
2022/12/22 09:14:24;;;;;;;51.67;27.27;;;8.00;99.90;;;;;;5259755;28;20192;-52
2022/12/22 09:16:55;;;;;;;37.37;20.53;;;8.00;99.90;;;;;;5258756;28;20271;-53
2022/12/22 09:19:26;;;;;;;42.83;20.87;;;7.90;99.90;;;;;;5265199;28;20181;-52
2022/12/22 09:21:57;;;;;;;31.47;19.37;;;8.00;99.90;;;;;;5257573;28;20605;-52
2022/12/22 09:24:27;;;;;;;33.50;19.93;;;7.90;99.90;;;;;;5263598;28;20182;-52
2022/12/22 09:26:58;;;;;;;32.47;19.23;;;7.90;99.90;;;;;;5264984;28;20834;-50
2022/12/22 09:29:29;;;;;;;37.97;20.70;;;7.90;99.90;;;;;;5263954;28;21030;-53
2022/12/22 09:31:59;;;;;;;27.80;16.93;;;8.10;99.90;;;;;;5271510;28;20172;-54
2022/12/22 09:34:30;;;;;;;29.47;18.40;;;8.10;99.90;;;;;;5264189;28;20180;-53
2022/12/22 09:37:01;;;;;;;29.20;16.77;;;8.10;99.90;;;;;;5260864;28;20204;-53
2022/12/22 09:39:31;;;;;;;27.73;18.23;;;8.10;99.90;;;;;;5268978;28;20567;-53
2022/12/22 09:42:02;;;;;;;34.20;18.30;;;8.10;99.90;;;;;;5275048;28;20186;-53
2022/12/22 09:44:45;;;;;;;29.50;15.80;;;8.10;99.90;;;;;;5266546;28;20189;-53
2022/12/22 09:47:44;;;;;;;33.33;18.33;;;8.00;99.90;;;;;;5259042;28;20303;-53
2022/12/22 09:50:16;;;;;;;35.00;19.03;;;8.10;99.90;;;;;;5255065;28;20482;-53
2022/12/22 09:52:52;;;;;;;22.63;16.27;;;8.10;99.90;;;;;;5258904;28;20428;-53
2022/12/22 09:55:22;;;;;;;29.63;17.20;;;8.00;99.90;;;;;;5264754;28;20424;-51
2022/12/22 09:57:53;;;;;;;37.03;18.87;;;8.20;99.90;;;;;;5262988;28;20555;-52
2022/12/22 10:00:26;;;;;;;31.73;17.10;;;8.20;99.90;;;;;;5262404;28;20181;-52
2022/12/22 10:03:17;;;;;;;38.47;19.03;;;8.00;99.90;;;;;;5265142;28;20798;-53
2022/12/22 10:06:03;;;;;;;34.83;18.57;;;8.10;99.90;;;;;;5273766;28;20416;-54
2022/12/22 10:08:36;;;;;;;37.73;17.83;;;8.10;99.90;;;;;;5265871;28;20561;-53
2022/12/22 10:11:16;;;;;;;31.13;17.07;;;8.10;99.90;;;;;;5259328;28;20482;-52
2022/12/22 10:13:46;;;;;;;34.67;17.23;;;7.90;99.90;;;;;;5263448;28;20565;-53
2022/12/22 10:16:23;;;;;;;26.40;16.83;;;8.20;99.90;;;;;;5264791;28;20428;-53
2022/12/22 10:19:14;;;;;;;18.40;14.30;;;8.20;99.90;;;;;;5270860;28;20185;-52
2022/12/22 10:21:45;;;;;;;28.17;15.20;;;8.00;99.90;;;;;;5267566;28;20636;-54
2022/12/22 10:24:42;;;;;;;24.17;14.90;;;8.00;99.90;;;;;;5276839;28;20510;-52
2022/12/22 10:27:13;;;;;;;21.97;13.80;;;8.00;99.90;;;;;;5255077;28;20213;-51
2022/12/22 10:29:44;;;;;;;25.73;14.33;;;8.00;99.90;;;;;;5266111;28;20899;-53
2022/12/22 10:32:17;;;;;;;25.80;16.60;;;8.10;99.90;;;;;;5271120;28;21024;-54
2022/12/22 10:35:05;;;;;;;21.27;15.00;;;8.10;99.90;;;;;;5274079;28;20174;-53
2022/12/22 10:37:38;;;;;;;23.97;13.47;;;8.20;99.90;;;;;;5274913;28;20457;-53
2022/12/22 10:40:17;;;;;;;24.83;13.23;;;8.20;99.90;;;;;;5268082;28;20522;-51
2022/12/22 10:42:54;;;;;;;21.87;13.33;;;8.30;99.90;;;;;;5265777;28;20507;-54
2022/12/22 10:45:26;;;;;;;22.03;14.37;;;8.30;99.90;;;;;;5275977;28;20828;-52
2022/12/22 10:47:57;;;;;;;22.13;12.83;;;8.40;99.90;;;;;;5285555;27;21044;-54
2022/12/22 10:50:29;;;;;;;21.00;13.20;;;8.30;99.90;;;;;;5272492;28;20423;-53
2022/12/22 10:53:02;;;;;;;17.37;13.50;;;8.40;99.90;;;;;;5276968;28;20455;-54
2022/12/22 10:55:34;;;;;;;18.10;12.77;;;8.30;99.90;;;;;;5265239;28;20436;-53
2022/12/22 10:58:20;;;;;;;21.17;12.30;;;8.30;99.90;;;;;;5252516;28;20987;-52
2022/12/22 11:01:03;;;;;;;19.07;13.13;;;8.30;99.90;;;;;;5268123;28;20435;-52
2022/12/22 11:03:33;;;;;;;26.43;14.80;;;8.30;99.90;;;;;;5270828;28;20514;-52
2022/12/22 11:06:11;;;;;;;18.37;13.20;;;8.40;99.90;;;;;;5261728;28;20581;-53
2022/12/22 11:08:42;;;;;;;20.40;13.63;;;8.40;99.90;;;;;;5260998;28;20472;-55
2022/12/22 11:11:30;;;;;;;17.60;13.43;;;8.20;99.90;;;;;;5263938;28;20480;-53
2022/12/22 11:14:00;;;;;;;24.30;14.27;;;8.20;99.90;;;;;;5265778;28;20240;-57
2022/12/22 11:16:53;;;;;;;27.10;15.27;;;8.40;99.90;;;;;;5264565;28;20538;-53
2022/12/22 11:20:01;;;;;;;17.77;13.37;;;8.50;99.90;;;;;;5268313;28;20186;-51
2022/12/22 11:22:32;;;;;;;17.07;13.20;;;8.50;99.90;;;;;;5277327;27;20433;-55
2022/12/22 11:25:15;;;;;;;19.43;11.50;;;8.50;99.90;;;;;;5262387;28;20497;-52
2022/12/22 11:28:15;;;;;;;22.90;13.90;;;8.40;99.90;;;;;;5263263;28;20213;-54
2022/12/22 11:31:05;;;;;;;45.90;20.33;;;8.40;99.90;;;;;;5267331;28;20436;-54
2022/12/22 11:34:19;;;;;;;190.97;66.33;;;8.60;99.90;;;;;;5261930;28;20497;-56
2022/12/22 11:37:10;;;;;;;52.30;28.03;;;8.50;99.90;;;;;;5261953;28;20439;-55
2022/12/22 11:39:55;;;;;;;24.03;15.07;;;8.60;99.90;;;;;;5263193;28;20464;-55
2022/12/22 11:42:51;;;;;;;17.33;11.93;;;8.60;99.90;;;;;;5260334;28;20431;-53
2022/12/22 11:45:50;;;;;;;17.33;12.47;;;8.50;99.90;;;;;;5268396;28;20463;-52
2022/12/22 11:48:58;;;;;;;17.43;11.40;;;8.50;99.90;;;;;;5256681;28;20478;-56
2022/12/22 11:51:47;;;;;;;16.60;12.10;;;8.60;99.90;;;;;;5258562;28;20435;-55
2022/12/22 11:54:30;;;;;;;19.10;13.50;;;8.60;99.90;;;;;;5261393;28;20421;-55
2022/12/22 11:57:25;;;;;;;15.30;11.17;;;8.70;99.90;;;;;;5261793;28;20455;-54
2022/12/22 12:00:16;;;;;;;17.10;11.97;;;8.70;99.90;;;;;;5262504;28;20448;-54
2022/12/22 12:02:47;;;;;;;24.20;14.10;;;8.70;99.90;;;;;;5260792;28;20433;-55
2022/12/22 12:05:41;;;;;;;15.40;12.07;;;8.70;99.90;;;;;;5261915;28;20443;-53
2022/12/22 12:08:49;;;;;;;28.37;11.50;;;8.70;99.90;;;;;;5241306;28;20221;-57
2022/12/22 12:11:38;;;;;;;12.80;11.47;;;8.70;99.90;;;;;;5267410;28;20800;-55
2022/12/22 12:14:12;;;;;;;17.47;12.77;;;8.80;99.90;;;;;;5266417;28;20462;-51
2022/12/22 12:16:53;;;;;;;16.00;11.90;;;8.80;99.90;;;;;;5262960;28;20442;-52
2022/12/22 12:19:33;;;;;;;18.17;13.70;;;8.80;99.90;;;;;;5264436;28;20438;-51
2022/12/22 12:22:07;;;;;;;20.87;12.67;;;8.80;99.90;;;;;;5283737;28;20477;-53
2022/12/22 12:25:00;;;;;;;19.03;12.97;;;8.80;99.90;;;;;;5264774;28;20955;-51
2022/12/22 12:28:03;;;;;;;14.60;12.63;;;8.80;99.90;;;;;;5261796;28;20471;-54
2022/12/22 12:31:05;;;;;;;13.63;10.93;;;8.80;99.90;;;;;;5255534;28;20459;-52
2022/12/22 12:33:42;;;;;;;15.43;12.40;;;8.80;99.90;;;;;;5245282;28;20431;-55
2022/12/22 12:36:34;;;;;;;13.53;11.33;;;8.80;99.90;;;;;;5263277;28;20439;-54
2022/12/22 12:39:30;;;;;;;14.53;12.07;;;8.80;99.90;;;;;;5269778;28;20529;-54
2022/12/22 12:42:20;;;;;;;17.50;14.07;;;8.80;99.90;;;;;;5269360;28;20429;-55
2022/12/22 12:44:53;;;;;;;15.10;12.73;;;8.80;99.90;;;;;;5270395;28;20425;-53
2022/12/22 12:47:34;;;;;;;14.80;12.10;;;8.80;99.90;;;;;;5249242;28;20566;-53
2022/12/22 12:50:24;;;;;;;19.90;14.33;;;8.80;99.90;;;;;;5258268;28;20424;-53
2022/12/22 12:52:58;;;;;;;16.23;12.83;;;8.80;99.90;;;;;;5270020;28;20423;-51
2022/12/22 12:55:31;;;;;;;14.00;12.27;;;8.80;99.90;;;;;;5265658;28;20435;-52
2022/12/22 12:58:03;;;;;;;17.20;12.87;;;8.80;99.90;;;;;;5263066;28;20585;-52
2022/12/22 13:00:33;;;;;;;14.63;11.97;;;8.80;99.90;;;;;;5267329;28;20454;-57
2022/12/22 13:03:33;;;;;;;12.50;10.70;;;8.90;99.90;;;;;;5261782;28;20444;-54
2022/12/22 13:06:06;;;;;;;16.30;10.67;;;8.90;99.90;;;;;;5267003;28;20668;-52
2022/12/22 13:09:14;;;;;;;13.63;10.70;;;8.80;99.90;;;;;;5269386;28;20476;-51
2022/12/22 13:11:45;;;;;;;12.03;10.73;;;8.80;99.90;;;;;;5272930;28;20439;-52
2022/12/22 13:14:54;;;;;;;13.20;11.40;;;8.80;99.90;;;;;;5272478;28;21094;-53
2022/12/22 13:17:38;;;;;;;12.63;11.30;;;8.80;99.90;;;;;;5268035;28;20213;-53
2022/12/22 13:20:29;;;;;;;11.13;10.13;;;8.80;99.90;;;;;;5280728;28;20434;-52
2022/12/22 13:23:09;;;;;;;13.53;10.53;;;8.80;99.90;;;;;;5272206;28;20443;-52
2022/12/22 13:25:57;;;;;;;14.93;10.40;;;8.80;99.90;;;;;;5266462;28;20427;-53
2022/12/22 13:28:29;;;;;;;9.93;9.03;;;8.80;99.90;;;;;;5271488;28;20459;-51
2022/12/22 13:31:05;;;;;;;12.57;10.47;;;8.80;99.90;;;;;;5275039;28;20510;-52
2022/12/22 13:33:38;;;;;;;15.40;12.50;;;8.80;99.90;;;;;;5279191;28;20411;-53
2022/12/22 13:36:18;;;;;;;11.03;9.93;;;8.80;99.90;;;;;;5277564;28;20427;-51
2022/12/22 13:39:03;;;;;;;13.23;10.13;;;8.70;99.90;;;;;;5279545;28;20482;-52
2022/12/22 13:41:33;;;;;;;13.50;10.03;;;8.80;99.90;;;;;;5276865;28;20423;-53
2022/12/22 13:44:09;;;;;;;15.93;11.60;;;8.70;99.90;;;;;;5283690;28;20445;-55
2022/12/22 13:46:41;;;;;;;15.73;11.77;;;8.70;99.90;;;;;;5280367;28;20185;-51
2022/12/22 13:49:18;;;;;;;17.23;10.90;;;8.70;99.90;;;;;;5281355;28;20484;-52
2022/12/22 13:51:50;;;;;;;11.33;9.63;;;8.80;99.90;;;;;;5273459;28;20469;-52
2022/12/22 13:54:36;;;;;;;13.63;10.17;;;8.70;99.90;;;;;;5275790;28;20427;-52
2022/12/22 13:57:16;;;;;;;19.40;12.57;;;8.80;99.90;;;;;;5276047;28;20465;-54
2022/12/22 13:59:50;;;;;;;12.43;10.30;;;8.80;99.90;;;;;;5259778;28;20444;-51
2022/12/22 14:02:21;;;;;;;14.30;9.63;;;8.80;99.90;;;;;;5279016;28;20430;-53
2022/12/22 14:05:09;;;;;;;16.30;9.23;;;8.80;99.90;;;;;;5279257;28;20450;-52
2022/12/22 14:08:01;;;;;;;15.33;12.03;;;8.80;99.90;;;;;;5276289;28;20470;-52
2022/12/22 14:10:41;;;;;;;12.50;11.03;;;8.80;99.90;;;;;;5278590;28;20959;-53
2022/12/22 14:13:19;;;;;;;12.30;10.10;;;8.80;99.90;;;;;;5280453;28;20427;-53
2022/12/22 14:15:59;;;;;;;14.50;11.13;;;8.80;99.90;;;;;;5278184;28;20418;-53
2022/12/22 14:18:32;;;;;;;12.10;10.70;;;8.70;99.90;;;;;;5275349;28;20447;-52
2022/12/22 14:21:03;;;;;;;13.30;11.23;;;8.80;99.90;;;;;;5277053;28;20427;-52
2022/12/22 14:23:40;;;;;;;10.30;9.30;;;8.80;99.90;;;;;;5265021;28;20434;-54
2022/12/22 14:26:17;;;;;;;14.07;11.70;;;8.70;99.90;;;;;;5259737;28;20440;-53
2022/12/22 14:28:53;;;;;;;12.97;10.73;;;8.80;99.90;;;;;;5266589;28;20982;-54
2022/12/22 14:31:23;;;;;;;17.83;13.90;;;8.80;99.90;;;;;;5264627;28;20435;-54
2022/12/22 14:34:04;;;;;;;17.83;13.63;;;8.80;99.90;;;;;;5267821;28;20423;-52
2022/12/22 14:36:37;;;;;;;14.47;11.87;;;8.70;99.90;;;;;;5270339;28;20166;-52
2022/12/22 14:39:09;;;;;;;12.50;11.20;;;8.70;99.90;;;;;;5261106;28;20464;-53
2022/12/22 14:41:52;;;;;;;15.37;11.17;;;8.70;99.90;;;;;;5268495;28;20776;-50
2022/12/22 14:44:29;;;;;;;14.43;10.53;;;8.70;99.90;;;;;;5268359;28;20452;-53
2022/12/22 14:47:15;;;;;;;13.70;10.43;;;8.80;99.90;;;;;;5266846;28;20466;-53
2022/12/22 14:50:00;;;;;;;14.27;11.03;;;8.70;99.90;;;;;;5284419;27;20966;-52
2022/12/22 14:52:54;;;;;;;11.97;10.77;;;8.70;99.90;;;;;;5263058;28;20568;-52
2022/12/22 14:55:32;;;;;;;11.13;9.73;;;8.60;99.90;;;;;;5270856;27;20951;-57
2022/12/22 14:58:16;;;;;;;10.00;9.03;;;8.60;99.90;;;;;;5259734;28;20479;-52
2022/12/22 15:01:08;;;;;;;11.80;9.90;;;8.70;99.90;;;;;;5257488;28;20447;-53
2022/12/22 15:03:40;;;;;;;10.90;9.50;;;8.60;99.90;;;;;;5265772;28;20487;-52
2022/12/22 15:06:26;;;;;;;12.03;9.50;;;8.60;99.90;;;;;;5266724;28;20432;-52
2022/12/22 15:09:10;;;;;;;10.73;9.60;;;8.60;99.90;;;;;;5267622;28;20500;-54
2022/12/22 15:11:47;;;;;;;10.90;9.80;;;8.60;99.90;;;;;;5262433;28;20502;-53
2022/12/22 15:14:20;;;;;;;12.97;9.97;;;8.60;99.90;;;;;;5263785;28;20435;-53
2022/12/22 15:16:56;;;;;;;12.70;9.37;;;8.60;99.90;;;;;;5272041;28;20458;-54
2022/12/22 15:19:31;;;;;;;12.77;10.00;;;8.50;99.90;;;;;;5273607;28;20447;-54
2022/12/22 15:22:05;;;;;;;9.27;8.37;;;8.50;99.90;;;;;;5267024;28;20430;-53
2022/12/22 15:24:35;;;;;;;8.97;8.17;;;8.60;99.90;;;;;;5267154;28;20549;-52
2022/12/22 15:27:06;;;;;;;13.60;9.63;;;8.50;99.90;;;;;;5272435;28;20585;-53
2022/12/22 15:29:37;;;;;;;9.37;8.47;;;8.50;99.90;;;;;;5268148;28;20553;-54
2022/12/22 15:32:12;;;;;;;13.17;9.03;;;8.50;99.90;;;;;;5270794;28;20641;-53
2022/12/22 15:34:43;;;;;;;10.70;9.37;;;8.60;99.90;;;;;;5275937;28;20187;-56
2022/12/22 15:37:13;;;;;;;13.00;9.60;;;8.50;99.90;;;;;;5276089;28;20459;-52
2022/12/22 15:39:44;;;;;;;11.20;9.50;;;8.50;99.90;;;;;;5268943;28;20261;-51
2022/12/22 15:42:15;;;;;;;10.50;8.80;;;8.50;99.90;;;;;;5278517;28;20187;-53
2022/12/22 15:44:45;;;;;;;15.57;11.37;;;8.40;99.90;;;;;;5274075;28;20193;-51
2022/12/22 15:47:20;;;;;;;11.70;10.40;;;8.50;99.90;;;;;;5270257;28;20221;-54
2022/12/22 15:49:51;;;;;;;13.40;10.47;;;8.50;99.90;;;;;;5275526;28;20179;-51
2022/12/22 15:52:22;;;;;;;16.57;12.07;;;8.50;99.90;;;;;;5276441;28;20440;-52
2022/12/22 15:54:53;;;;;;;18.80;12.27;;;8.50;99.90;;;;;;5283106;27;20638;-54
2022/12/22 15:57:24;;;;;;;28.17;15.17;;;8.50;99.90;;;;;;5268837;28;20275;-51
2022/12/22 15:59:55;;;;;;;17.10;12.93;;;8.50;99.90;;;;;;5270529;28;20431;-53
2022/12/22 16:02:25;;;;;;;15.00;13.13;;;8.60;99.90;;;;;;5267271;28;20197;-50
2022/12/22 16:04:56;;;;;;;20.40;13.63;;;8.50;99.90;;;;;;5277986;28;20195;-52
2022/12/22 16:07:29;;;;;;;20.97;13.23;;;8.50;99.90;;;;;;5265061;28;20217;-54
2022/12/22 16:10:00;;;;;;;21.37;14.33;;;8.40;99.90;;;;;;5261419;28;20186;-55
2022/12/22 16:12:31;;;;;;;17.10;13.67;;;8.30;99.90;;;;;;5279151;28;20446;-53
2022/12/22 16:15:02;;;;;;;25.57;14.70;;;8.40;99.90;;;;;;5260463;28;20511;-54
2022/12/22 16:17:33;;;;;;;33.07;19.00;;;8.40;99.90;;;;;;5260872;28;20624;-54
2022/12/22 16:20:05;;;;;;;27.50;17.10;;;8.40;99.90;;;;;;5271455;28;20442;-54
2022/12/22 16:22:36;;;;;;;29.67;17.87;;;8.20;99.90;;;;;;5273205;28;20210;-54
2022/12/22 16:25:13;;;;;;;34.20;19.80;;;8.30;99.90;;;;;;5278306;28;20426;-53
2022/12/22 16:27:46;;;;;;;30.33;16.40;;;8.20;99.90;;;;;;5283848;28;20484;-53
2022/12/22 16:30:23;;;;;;;35.03;20.47;;;8.30;99.90;;;;;;5274730;28;20878;-53
2022/12/22 16:32:54;;;;;;;34.30;21.20;;;8.20;99.90;;;;;;5265770;28;20433;-54
2022/12/22 16:35:28;;;;;;;40.50;22.70;;;8.10;99.90;;;;;;5281986;28;20507;-54
2022/12/22 16:37:59;;;;;;;43.27;22.27;;;8.10;99.90;;;;;;5282946;27;20451;-53
2022/12/22 16:40:32;;;;;;;52.17;25.13;;;8.00;99.90;;;;;;5280597;28;20873;-54
2022/12/22 16:43:18;;;;;;;36.00;20.43;;;8.10;99.90;;;;;;5278514;28;20853;-54
2022/12/22 16:45:49;;;;;;;34.63;20.20;;;8.00;99.90;;;;;;5248127;28;20423;-54
2022/12/22 16:48:45;;;;;;;60.97;27.77;;;7.90;99.90;;;;;;5277477;28;20463;-54
2022/12/22 16:51:28;;;;;;;56.37;27.97;;;7.90;99.90;;;;;;5272794;28;20429;-54
2022/12/22 16:53:59;;;;;;;48.90;23.03;;;7.80;99.90;;;;;;5275049;28;20430;-53
2022/12/22 16:56:30;;;;;;;49.33;23.47;;;7.70;99.90;;;;;;5277063;28;20434;-54
2022/12/22 16:59:03;;;;;;;40.60;22.10;;;7.70;99.90;;;;;;5275891;28;20511;-53